sensor_id;sensor_type;location;lat;lon;timestamp;P1;durP1;ratioP1;P2;durP2;ratioP2
12780;SDS011;6454;43.304;24.344;2023-04-03T04:41:57;1.85;;;1.75;;
12780;SDS011;6454;43.304;24.344;2023-04-03T04:44:24;2.17;;;1.50;;
12780;SDS011;6454;43.304;24.344;2023-04-03T04:46:50;1.90;;;1.70;;
12780;SDS011;6454;43.304;24.344;2023-04-03T04:49:17;3.97;;;2.10;;
12780;SDS011;6454;43.304;24.344;2023-04-03T04:51:44;1.80;;;1.70;;
12780;SDS011;6454;43.304;24.344;2023-04-03T04:54:11;2.40;;;1.97;;
12780;SDS011;6454;43.304;24.344;2023-04-03T04:56:38;2.20;;;2.00;;
12780;SDS011;6454;43.304;24.344;2023-04-03T04:59:06;2.97;;;2.10;;
12780;SDS011;6454;43.304;24.344;2023-04-03T05:01:33;2.88;;;2.13;;
12780;SDS011;6454;43.304;24.344;2023-04-03T05:04:00;6.38;;;4.22;;
12780;SDS011;6454;43.304;24.344;2023-04-03T05:06:27;13.55;;;8.35;;
12780;SDS011;6454;43.304;24.344;2023-04-03T05:08:55;28.25;;;14.40;;
12780;SDS011;6454;43.304;24.344;2023-04-03T05:11:22;16.35;;;8.68;;
12780;SDS011;6454;43.304;24.344;2023-04-03T05:13:49;12.15;;;5.57;;
12780;SDS011;6454;43.304;24.344;2023-04-03T05:16:17;6.53;;;3.95;;
12780;SDS011;6454;43.304;24.344;2023-04-03T05:18:44;5.88;;;2.80;;
12780;SDS011;6454;43.304;24.344;2023-04-03T05:21:11;2.10;;;1.80;;
12780;SDS011;6454;43.304;24.344;2023-04-03T05:23:38;2.10;;;1.83;;
12780;SDS011;6454;43.304;24.344;2023-04-03T05:26:04;2.63;;;1.98;;
12780;SDS011;6454;43.304;24.344;2023-04-03T05:28:32;1.90;;;1.70;;
12780;SDS011;6454;43.304;24.344;2023-04-03T05:30:59;2.28;;;2.00;;
12780;SDS011;6454;43.304;24.344;2023-04-03T05:33:27;2.92;;;1.90;;
12780;SDS011;6454;43.304;24.344;2023-04-03T05:35:54;2.92;;;1.80;;
12780;SDS011;6454;43.304;24.344;2023-04-03T05:38:21;2.22;;;1.80;;
12780;SDS011;6454;43.304;24.344;2023-04-03T05:40:48;1.80;;;1.70;;
12780;SDS011;6454;43.304;24.344;2023-04-03T05:43:15;2.53;;;1.50;;
12780;SDS011;6454;43.304;24.344;2023-04-03T05:45:42;2.65;;;1.70;;
12780;SDS011;6454;43.304;24.344;2023-04-03T05:48:09;3.17;;;2.15;;
12780;SDS011;6454;43.304;24.344;2023-04-03T05:50:38;1.90;;;1.80;;
12780;SDS011;6454;43.304;24.344;2023-04-03T05:53:06;1.75;;;1.50;;
12780;SDS011;6454;43.304;24.344;2023-04-03T05:55:38;1.80;;;1.70;;
12780;SDS011;6454;43.304;24.344;2023-04-03T05:58:05;3.65;;;1.67;;
12780;SDS011;6454;43.304;24.344;2023-04-03T06:00:32;2.92;;;1.58;;
12780;SDS011;6454;43.304;24.344;2023-04-03T06:02:59;2.05;;;1.83;;
12780;SDS011;6454;43.304;24.344;2023-04-03T06:05:26;1.88;;;1.70;;
12780;SDS011;6454;43.304;24.344;2023-04-03T06:07:54;1.63;;;1.52;;
12780;SDS011;6454;43.304;24.344;2023-04-03T06:10:22;6.35;;;2.33;;
12780;SDS011;6454;43.304;24.344;2023-04-03T06:12:49;1.77;;;1.65;;
12780;SDS011;6454;43.304;24.344;2023-04-03T06:15:16;2.50;;;1.90;;
12780;SDS011;6454;43.304;24.344;2023-04-03T06:17:43;1.80;;;1.70;;
12780;SDS011;6454;43.304;24.344;2023-04-03T06:20:10;3.28;;;1.83;;
12780;SDS011;6454;43.304;24.344;2023-04-03T06:22:38;1.95;;;1.70;;
12780;SDS011;6454;43.304;24.344;2023-04-03T06:25:08;2.70;;;1.50;;
12780;SDS011;6454;43.304;24.344;2023-04-03T06:27:36;2.38;;;1.75;;
12780;SDS011;6454;43.304;24.344;2023-04-03T06:30:03;1.75;;;1.60;;
12780;SDS011;6454;43.304;24.344;2023-04-03T06:32:31;1.90;;;1.60;;
12780;SDS011;6454;43.304;24.344;2023-04-03T06:34:58;1.70;;;1.60;;
12780;SDS011;6454;43.304;24.344;2023-04-03T06:37:25;1.70;;;1.38;;
12780;SDS011;6454;43.304;24.344;2023-04-03T06:39:53;1.83;;;1.50;;
12780;SDS011;6454;43.304;24.344;2023-04-03T06:42:22;1.63;;;1.52;;
12780;SDS011;6454;43.304;24.344;2023-04-03T06:44:49;1.42;;;1.33;;
12780;SDS011;6454;43.304;24.344;2023-04-03T06:47:16;1.50;;;1.40;;
12780;SDS011;6454;43.304;24.344;2023-04-03T06:49:43;1.40;;;1.30;;
12780;SDS011;6454;43.304;24.344;2023-04-03T06:52:11;1.65;;;1.55;;
12780;SDS011;6454;43.304;24.344;2023-04-03T06:54:38;1.48;;;1.38;;
12780;SDS011;6454;43.304;24.344;2023-04-03T06:57:05;2.35;;;1.67;;
12780;SDS011;6454;43.304;24.344;2023-04-03T06:59:34;2.33;;;1.20;;
12780;SDS011;6454;43.304;24.344;2023-04-03T07:02:01;1.30;;;1.20;;
12780;SDS011;6454;43.304;24.344;2023-04-03T07:04:28;1.55;;;1.20;;
12780;SDS011;6454;43.304;24.344;2023-04-03T07:06:55;1.45;;;1.30;;
12780;SDS011;6454;43.304;24.344;2023-04-03T07:19:23;1.92;;;1.60;;
12780;SDS011;6454;43.304;24.344;2023-04-03T07:21:53;1.60;;;1.50;;
12780;SDS011;6454;43.304;24.344;2023-04-03T07:24:20;1.60;;;1.50;;
12780;SDS011;6454;43.304;24.344;2023-04-03T07:26:48;1.38;;;1.27;;
12780;SDS011;6454;43.304;24.344;2023-04-03T07:29:15;1.42;;;1.33;;
12780;SDS011;6454;43.304;24.344;2023-04-03T07:31:42;1.63;;;1.50;;
12780;SDS011;6454;43.304;24.344;2023-04-03T07:34:09;1.80;;;1.50;;
12780;SDS011;6454;43.304;24.344;2023-04-03T07:36:38;1.60;;;1.50;;
12780;SDS011;6454;43.304;24.344;2023-04-03T07:39:04;1.50;;;1.40;;
12780;SDS011;6454;43.304;24.344;2023-04-03T07:41:32;1.67;;;1.58;;
12780;SDS011;6454;43.304;24.344;2023-04-03T07:43:59;1.60;;;1.50;;
12780;SDS011;6454;43.304;24.344;2023-04-03T07:46:26;1.63;;;1.45;;
12780;SDS011;6454;43.304;24.344;2023-04-03T07:48:52;1.75;;;1.65;;
12780;SDS011;6454;43.304;24.344;2023-04-03T07:51:19;1.50;;;1.40;;
12780;SDS011;6454;43.304;24.344;2023-04-03T07:53:47;2.40;;;1.45;;
12780;SDS011;6454;43.304;24.344;2023-04-03T07:56:14;1.67;;;1.50;;
12780;SDS011;6454;43.304;24.344;2023-04-03T07:58:42;1.55;;;1.45;;
12780;SDS011;6454;43.304;24.344;2023-04-03T08:01:10;1.50;;;1.40;;
12780;SDS011;6454;43.304;24.344;2023-04-03T08:03:37;2.17;;;1.92;;
12780;SDS011;6454;43.304;24.344;2023-04-03T08:06:06;1.85;;;1.73;;
12780;SDS011;6454;43.304;24.344;2023-04-03T08:08:34;4.22;;;1.67;;
12780;SDS011;6454;43.304;24.344;2023-04-03T08:11:03;1.70;;;1.60;;
12780;SDS011;6454;43.304;24.344;2023-04-03T08:13:31;1.65;;;1.40;;
12780;SDS011;6454;43.304;24.344;2023-04-03T08:16:06;1.63;;;1.50;;
12780;SDS011;6454;43.304;24.344;2023-04-03T08:18:34;1.60;;;1.50;;
12780;SDS011;6454;43.304;24.344;2023-04-03T08:21:01;2.40;;;1.85;;
12780;SDS011;6454;43.304;24.344;2023-04-03T08:23:32;1.60;;;1.50;;
12780;SDS011;6454;43.304;24.344;2023-04-03T08:25:58;1.70;;;1.60;;
12780;SDS011;6454;43.304;24.344;2023-04-03T08:28:27;1.70;;;1.52;;
12780;SDS011;6454;43.304;24.344;2023-04-03T08:30:54;1.60;;;1.50;;
12780;SDS011;6454;43.304;24.344;2023-04-03T08:33:21;2.60;;;1.55;;
12780;SDS011;6454;43.304;24.344;2023-04-03T08:35:48;1.75;;;1.65;;
12780;SDS011;6454;43.304;24.344;2023-04-03T08:38:14;1.40;;;1.30;;
12780;SDS011;6454;43.304;24.344;2023-04-03T08:40:41;1.58;;;1.33;;
12780;SDS011;6454;43.304;24.344;2023-04-03T08:43:15;1.52;;;1.33;;
12780;SDS011;6454;43.304;24.344;2023-04-03T08:45:57;2.15;;;1.67;;
12780;SDS011;6454;43.304;24.344;2023-04-03T08:48:29;2.13;;;1.70;;
12780;SDS011;6454;43.304;24.344;2023-04-03T08:51:00;2.83;;;1.52;;
12780;SDS011;6454;43.304;24.344;2023-04-03T08:53:32;1.40;;;1.27;;
12780;SDS011;6454;43.304;24.344;2023-04-03T08:56:02;1.63;;;1.52;;
12780;SDS011;6454;43.304;24.344;2023-04-03T08:58:33;1.50;;;1.40;;
12780;SDS011;6454;43.304;24.344;2023-04-03T09:01:16;2.05;;;1.83;;
12780;SDS011;6454;43.304;24.344;2023-04-03T09:03:46;1.58;;;1.30;;
12780;SDS011;6454;43.304;24.344;2023-04-03T09:06:13;1.65;;;1.30;;
12780;SDS011;6454;43.304;24.344;2023-04-03T09:08:43;2.08;;;1.40;;
12780;SDS011;6454;43.304;24.344;2023-04-03T09:11:14;2.03;;;1.40;;
12780;SDS011;6454;43.304;24.344;2023-04-03T09:13:48;2.30;;;1.42;;
12780;SDS011;6454;43.304;24.344;2023-04-03T09:16:25;1.30;;;1.20;;
12780;SDS011;6454;43.304;24.344;2023-04-03T09:19:02;1.40;;;1.30;;
12780;SDS011;6454;43.304;24.344;2023-04-03T09:21:39;2.22;;;1.58;;
12780;SDS011;6454;43.304;24.344;2023-04-03T09:24:07;1.40;;;1.30;;
12780;SDS011;6454;43.304;24.344;2023-04-03T09:26:39;1.40;;;1.20;;
12780;SDS011;6454;43.304;24.344;2023-04-03T09:29:11;1.73;;;1.50;;
12780;SDS011;6454;43.304;24.344;2023-04-03T09:31:44;1.85;;;1.50;;
12780;SDS011;6454;43.304;24.344;2023-04-03T09:34:14;1.92;;;1.50;;
12780;SDS011;6454;43.304;24.344;2023-04-03T09:36:48;1.33;;;1.23;;
12780;SDS011;6454;43.304;24.344;2023-04-03T09:39:17;1.30;;;1.20;;
12780;SDS011;6454;43.304;24.344;2023-04-03T09:41:55;2.40;;;1.50;;
12780;SDS011;6454;43.304;24.344;2023-04-03T09:44:27;1.02;;;1.02;;
12780;SDS011;6454;43.304;24.344;2023-04-03T09:46:57;1.73;;;1.20;;
12780;SDS011;6454;43.304;24.344;2023-04-03T09:49:24;1.38;;;1.27;;
12780;SDS011;6454;43.304;24.344;2023-04-03T09:51:51;1.30;;;1.10;;
12780;SDS011;6454;43.304;24.344;2023-04-03T09:54:25;2.15;;;1.33;;
12780;SDS011;6454;43.304;24.344;2023-04-03T09:56:58;1.33;;;1.23;;
12780;SDS011;6454;43.304;24.344;2023-04-03T09:59:27;1.98;;;1.30;;
12780;SDS011;6454;43.304;24.344;2023-04-03T10:01:58;3.25;;;1.48;;
12780;SDS011;6454;43.304;24.344;2023-04-03T10:04:26;1.50;;;1.40;;
12780;SDS011;6454;43.304;24.344;2023-04-03T10:07:04;2.10;;;1.20;;
12780;SDS011;6454;43.304;24.344;2023-04-03T10:09:58;1.42;;;1.33;;
12780;SDS011;6454;43.304;24.344;2023-04-03T10:12:26;1.30;;;1.20;;
12780;SDS011;6454;43.304;24.344;2023-04-03T10:14:54;1.85;;;1.50;;
12780;SDS011;6454;43.304;24.344;2023-04-03T10:17:24;1.30;;;1.20;;
12780;SDS011;6454;43.304;24.344;2023-04-03T10:20:01;1.63;;;1.40;;
12780;SDS011;6454;43.304;24.344;2023-04-03T10:22:37;4.75;;;2.88;;
12780;SDS011;6454;43.304;24.344;2023-04-03T10:25:12;1.40;;;1.30;;
12780;SDS011;6454;43.304;24.344;2023-04-03T10:27:48;1.27;;;1.17;;
12780;SDS011;6454;43.304;24.344;2023-04-03T10:30:33;1.65;;;1.55;;
12780;SDS011;6454;43.304;24.344;2023-04-03T10:33:25;1.65;;;1.48;;
12780;SDS011;6454;43.304;24.344;2023-04-03T10:38:54;2.35;;;1.52;;
12780;SDS011;6454;43.304;24.344;2023-04-03T10:41:30;1.50;;;1.40;;
12780;SDS011;6454;43.304;24.344;2023-04-03T10:44:07;1.90;;;1.60;;
12780;SDS011;6454;43.304;24.344;2023-04-03T10:46:43;2.17;;;1.48;;
12780;SDS011;6454;43.304;24.344;2023-04-03T10:49:19;1.67;;;1.58;;
12780;SDS011;6454;43.304;24.344;2023-04-03T10:52:00;1.33;;;1.23;;
12780;SDS011;6454;43.304;24.344;2023-04-03T10:54:35;1.40;;;1.30;;
12780;SDS011;6454;43.304;24.344;2023-04-03T10:57:05;1.50;;;1.40;;
12780;SDS011;6454;43.304;24.344;2023-04-03T10:59:35;1.50;;;1.38;;
12780;SDS011;6454;43.304;24.344;2023-04-03T11:02:06;1.60;;;1.50;;
12780;SDS011;6454;43.304;24.344;2023-04-03T11:04:37;1.48;;;1.30;;
12780;SDS011;6454;43.304;24.344;2023-04-03T11:07:10;1.88;;;1.60;;
12780;SDS011;6454;43.304;24.344;2023-04-03T11:09:44;1.52;;;1.42;;
12780;SDS011;6454;43.304;24.344;2023-04-03T11:12:15;1.30;;;1.20;;
12780;SDS011;6454;43.304;24.344;2023-04-03T11:14:47;1.30;;;1.20;;
12780;SDS011;6454;43.304;24.344;2023-04-03T11:17:20;1.45;;;1.35;;
12780;SDS011;6454;43.304;24.344;2023-04-03T11:19:57;1.80;;;1.42;;
12780;SDS011;6454;43.304;24.344;2023-04-03T11:22:32;1.35;;;1.20;;
12780;SDS011;6454;43.304;24.344;2023-04-03T11:25:06;1.48;;;1.30;;
12780;SDS011;6454;43.304;24.344;2023-04-03T11:27:47;1.40;;;1.30;;
12780;SDS011;6454;43.304;24.344;2023-04-03T11:30:18;2.42;;;1.30;;
12780;SDS011;6454;43.304;24.344;2023-04-03T11:35:53;1.40;;;1.30;;
12780;SDS011;6454;43.304;24.344;2023-04-03T11:38:25;1.15;;;1.05;;
12780;SDS011;6454;43.304;24.344;2023-04-03T11:40:57;2.53;;;1.13;;
12780;SDS011;6454;43.304;24.344;2023-04-03T11:43:25;1.80;;;1.17;;
12780;SDS011;6454;43.304;24.344;2023-04-03T11:45:55;2.55;;;1.30;;
12780;SDS011;6454;43.304;24.344;2023-04-03T11:51:38;1.50;;;1.40;;
12780;SDS011;6454;43.304;24.344;2023-04-03T12:03:30;1.83;;;1.50;;
12780;SDS011;6454;43.304;24.344;2023-04-03T12:06:49;1.40;;;1.30;;
12780;SDS011;6454;43.304;24.344;2023-04-03T12:09:28;1.50;;;1.30;;
12780;SDS011;6454;43.304;24.344;2023-04-03T12:12:00;2.70;;;1.70;;
12780;SDS011;6454;43.304;24.344;2023-04-03T12:14:49;1.50;;;1.40;;
12780;SDS011;6454;43.304;24.344;2023-04-03T12:17:22;1.85;;;1.70;;
12780;SDS011;6454;43.304;24.344;2023-04-03T12:19:52;2.40;;;1.90;;
12780;SDS011;6454;43.304;24.344;2023-04-03T12:22:19;2.10;;;1.70;;
12780;SDS011;6454;43.304;24.344;2023-04-03T12:24:47;1.58;;;1.35;;
12780;SDS011;6454;43.304;24.344;2023-04-03T12:27:30;1.73;;;1.40;;
12780;SDS011;6454;43.304;24.344;2023-04-03T12:30:13;1.40;;;1.30;;
12780;SDS011;6454;43.304;24.344;2023-04-03T12:32:51;2.03;;;1.70;;
12780;SDS011;6454;43.304;24.344;2023-04-03T12:35:28;2.15;;;1.40;;
12780;SDS011;6454;43.304;24.344;2023-04-03T12:40:58;1.50;;;1.40;;
12780;SDS011;6454;43.304;24.344;2023-04-03T12:43:43;1.50;;;1.40;;
12780;SDS011;6454;43.304;24.344;2023-04-03T12:46:24;1.58;;;1.25;;
12780;SDS011;6454;43.304;24.344;2023-04-03T12:48:55;5.93;;;1.90;;
12780;SDS011;6454;43.304;24.344;2023-04-03T12:51:26;3.63;;;1.40;;
12780;SDS011;6454;43.304;24.344;2023-04-03T12:53:57;1.50;;;1.40;;
12780;SDS011;6454;43.304;24.344;2023-04-03T12:56:29;1.58;;;1.30;;
12780;SDS011;6454;43.304;24.344;2023-04-03T12:59:12;1.75;;;1.60;;
12780;SDS011;6454;43.304;24.344;2023-04-03T13:01:42;2.88;;;1.67;;
12780;SDS011;6454;43.304;24.344;2023-04-03T13:04:10;3.03;;;1.33;;
12780;SDS011;6454;43.304;24.344;2023-04-03T13:06:39;10.25;;;1.80;;
12780;SDS011;6454;43.304;24.344;2023-04-03T13:09:17;1.90;;;1.70;;
12780;SDS011;6454;43.304;24.344;2023-04-03T13:11:47;3.67;;;2.28;;
12780;SDS011;6454;43.304;24.344;2023-04-03T13:14:17;3.15;;;1.70;;
12780;SDS011;6454;43.304;24.344;2023-04-03T13:16:54;2.45;;;1.42;;
12780;SDS011;6454;43.304;24.344;2023-04-03T13:19:22;1.30;;;1.20;;
12780;SDS011;6454;43.304;24.344;2023-04-03T13:21:51;2.78;;;1.48;;
12780;SDS011;6454;43.304;24.344;2023-04-03T13:24:23;1.60;;;1.50;;
12780;SDS011;6454;43.304;24.344;2023-04-03T13:26:51;3.65;;;1.63;;
12780;SDS011;6454;43.304;24.344;2023-04-03T13:29:20;3.50;;;2.10;;
12780;SDS011;6454;43.304;24.344;2023-04-03T13:31:53;3.13;;;2.22;;
12780;SDS011;6454;43.304;24.344;2023-04-03T13:34:22;3.35;;;1.88;;
12780;SDS011;6454;43.304;24.344;2023-04-03T13:36:55;5.50;;;2.75;;
12780;SDS011;6454;43.304;24.344;2023-04-03T13:39:24;4.80;;;2.83;;
12780;SDS011;6454;43.304;24.344;2023-04-03T13:41:54;3.03;;;2.20;;
12780;SDS011;6454;43.304;24.344;2023-04-03T13:44:29;2.58;;;1.80;;
12780;SDS011;6454;43.304;24.344;2023-04-03T13:47:01;5.82;;;2.15;;
12780;SDS011;6454;43.304;24.344;2023-04-03T13:49:42;5.07;;;2.83;;
12780;SDS011;6454;43.304;24.344;2023-04-03T13:52:21;7.20;;;3.22;;
12780;SDS011;6454;43.304;24.344;2023-04-03T13:54:51;4.82;;;2.58;;
12780;SDS011;6454;43.304;24.344;2023-04-03T13:57:20;2.58;;;2.10;;
12780;SDS011;6454;43.304;24.344;2023-04-03T13:59:48;5.22;;;1.70;;
12780;SDS011;6454;43.304;24.344;2023-04-03T14:02:18;3.10;;;2.50;;
12780;SDS011;6454;43.304;24.344;2023-04-03T14:04:48;8.13;;;2.70;;
12780;SDS011;6454;43.304;24.344;2023-04-03T14:07:21;3.40;;;2.25;;
12780;SDS011;6454;43.304;24.344;2023-04-03T14:09:49;6.85;;;3.17;;
12780;SDS011;6454;43.304;24.344;2023-04-03T14:12:17;4.32;;;3.25;;
12780;SDS011;6454;43.304;24.344;2023-04-03T14:14:47;5.57;;;4.90;;
12780;SDS011;6454;43.304;24.344;2023-04-03T14:17:16;6.78;;;5.75;;
12780;SDS011;6454;43.304;24.344;2023-04-03T14:19:46;5.75;;;4.90;;
12780;SDS011;6454;43.304;24.344;2023-04-03T14:22:16;4.93;;;4.22;;
12780;SDS011;6454;43.304;24.344;2023-04-03T14:24:44;6.80;;;4.97;;
12780;SDS011;6454;43.304;24.344;2023-04-03T14:27:14;3.75;;;3.00;;
12780;SDS011;6454;43.304;24.344;2023-04-03T14:29:44;3.92;;;3.03;;
12780;SDS011;6454;43.304;24.344;2023-04-03T14:32:12;6.78;;;5.15;;
12780;SDS011;6454;43.304;24.344;2023-04-03T14:34:41;3.38;;;2.22;;
12780;SDS011;6454;43.304;24.344;2023-04-03T14:37:10;2.50;;;1.77;;
12780;SDS011;6454;43.304;24.344;2023-04-03T14:39:38;3.00;;;2.05;;
12780;SDS011;6454;43.304;24.344;2023-04-03T14:42:05;2.65;;;2.35;;
12780;SDS011;6454;43.304;24.344;2023-04-03T14:44:32;2.72;;;2.20;;
12780;SDS011;6454;43.304;24.344;2023-04-03T14:46:59;2.05;;;1.90;;
12780;SDS011;6454;43.304;24.344;2023-04-03T14:49:27;3.72;;;2.92;;
12780;SDS011;6454;43.304;24.344;2023-04-03T14:51:56;3.88;;;2.78;;
12780;SDS011;6454;43.304;24.344;2023-04-03T14:54:23;3.38;;;2.72;;
12780;SDS011;6454;43.304;24.344;2023-04-03T14:56:52;2.05;;;1.92;;
12780;SDS011;6454;43.304;24.344;2023-04-03T14:59:20;2.10;;;1.90;;
12780;SDS011;6454;43.304;24.344;2023-04-03T15:01:48;2.50;;;2.30;;
12780;SDS011;6454;43.304;24.344;2023-04-03T15:04:15;5.63;;;3.85;;
12780;SDS011;6454;43.304;24.344;2023-04-03T15:06:43;3.75;;;2.70;;
12780;SDS011;6454;43.304;24.344;2023-04-03T15:09:14;3.80;;;2.30;;
12780;SDS011;6454;43.304;24.344;2023-04-03T15:11:46;5.72;;;3.30;;
12780;SDS011;6454;43.304;24.344;2023-04-03T15:14:13;5.28;;;4.13;;
12780;SDS011;6454;43.304;24.344;2023-04-03T15:16:40;3.33;;;3.03;;
12780;SDS011;6454;43.304;24.344;2023-04-03T15:19:07;6.78;;;4.93;;
12780;SDS011;6454;43.304;24.344;2023-04-03T15:21:33;5.22;;;3.58;;
12780;SDS011;6454;43.304;24.344;2023-04-03T15:24:01;5.32;;;3.55;;
12780;SDS011;6454;43.304;24.344;2023-04-03T15:26:30;5.40;;;2.65;;
12780;SDS011;6454;43.304;24.344;2023-04-03T15:28:58;2.88;;;2.40;;
12780;SDS011;6454;43.304;24.344;2023-04-03T15:31:25;4.10;;;3.10;;
12780;SDS011;6454;43.304;24.344;2023-04-03T15:33:52;4.97;;;4.32;;
12780;SDS011;6454;43.304;24.344;2023-04-03T15:36:19;4.50;;;4.05;;
12780;SDS011;6454;43.304;24.344;2023-04-03T15:38:45;5.75;;;3.70;;
12780;SDS011;6454;43.304;24.344;2023-04-03T15:41:12;3.85;;;3.53;;
12780;SDS011;6454;43.304;24.344;2023-04-03T15:43:40;3.88;;;3.47;;
12780;SDS011;6454;43.304;24.344;2023-04-03T15:46:07;4.05;;;3.38;;
12780;SDS011;6454;43.304;24.344;2023-04-03T15:48:35;3.42;;;2.95;;
12780;SDS011;6454;43.304;24.344;2023-04-03T15:51:02;3.50;;;3.00;;
12780;SDS011;6454;43.304;24.344;2023-04-03T15:53:29;3.45;;;3.03;;
12780;SDS011;6454;43.304;24.344;2023-04-03T15:55:56;6.97;;;4.07;;
12780;SDS011;6454;43.304;24.344;2023-04-03T15:58:23;9.82;;;6.45;;
12780;SDS011;6454;43.304;24.344;2023-04-03T16:00:51;7.30;;;6.07;;
12780;SDS011;6454;43.304;24.344;2023-04-03T16:03:19;8.90;;;6.18;;
12780;SDS011;6454;43.304;24.344;2023-04-03T16:05:47;5.57;;;4.97;;
12780;SDS011;6454;43.304;24.344;2023-04-03T16:08:14;6.57;;;4.40;;
12780;SDS011;6454;43.304;24.344;2023-04-03T16:10:42;4.68;;;3.88;;
12780;SDS011;6454;43.304;24.344;2023-04-03T16:13:10;3.65;;;3.35;;
12780;SDS011;6454;43.304;24.344;2023-04-03T16:15:37;6.43;;;5.10;;
12780;SDS011;6454;43.304;24.344;2023-04-03T16:18:05;5.28;;;4.78;;
12780;SDS011;6454;43.304;24.344;2023-04-03T16:20:33;4.65;;;4.15;;
12780;SDS011;6454;43.304;24.344;2023-04-03T16:23:00;5.72;;;4.60;;
12780;SDS011;6454;43.304;24.344;2023-04-03T16:25:27;9.25;;;6.95;;
12780;SDS011;6454;43.304;24.344;2023-04-03T16:27:56;12.25;;;9.35;;
12780;SDS011;6454;43.304;24.344;2023-04-03T16:30:22;7.63;;;6.20;;
12780;SDS011;6454;43.304;24.344;2023-04-03T16:32:49;6.93;;;5.22;;
12780;SDS011;6454;43.304;24.344;2023-04-03T16:35:18;5.82;;;5.13;;
12780;SDS011;6454;43.304;24.344;2023-04-03T16:37:45;4.75;;;4.20;;
12780;SDS011;6454;43.304;24.344;2023-04-03T16:40:12;3.40;;;3.10;;
12780;SDS011;6454;43.304;24.344;2023-04-03T16:42:38;3.25;;;2.95;;
12780;SDS011;6454;43.304;24.344;2023-04-03T16:45:06;2.75;;;2.55;;
12780;SDS011;6454;43.304;24.344;2023-04-03T16:47:34;3.22;;;2.95;;
12780;SDS011;6454;43.304;24.344;2023-04-03T16:50:00;4.80;;;4.03;;
12780;SDS011;6454;43.304;24.344;2023-04-03T16:52:29;6.95;;;5.47;;
12780;SDS011;6454;43.304;24.344;2023-04-03T16:54:55;8.30;;;6.38;;
12780;SDS011;6454;43.304;24.344;2023-04-03T16:57:24;6.30;;;5.70;;
12780;SDS011;6454;43.304;24.344;2023-04-03T16:59:51;6.10;;;5.05;;
12780;SDS011;6454;43.304;24.344;2023-04-03T17:02:20;4.40;;;4.00;;
12780;SDS011;6454;43.304;24.344;2023-04-03T17:04:49;3.45;;;3.15;;
12780;SDS011;6454;43.304;24.344;2023-04-03T17:07:16;3.00;;;2.80;;
12780;SDS011;6454;43.304;24.344;2023-04-03T17:09:45;2.55;;;2.35;;
12780;SDS011;6454;43.304;24.344;2023-04-03T17:12:11;3.17;;;2.88;;
12780;SDS011;6454;43.304;24.344;2023-04-03T17:14:38;3.72;;;3.25;;
12780;SDS011;6454;43.304;24.344;2023-04-03T17:17:05;3.33;;;3.03;;
12780;SDS011;6454;43.304;24.344;2023-04-03T17:19:33;3.20;;;2.90;;
12780;SDS011;6454;43.304;24.344;2023-04-03T17:22:00;3.35;;;3.05;;
12780;SDS011;6454;43.304;24.344;2023-04-03T17:24:27;4.00;;;3.40;;
12780;SDS011;6454;43.304;24.344;2023-04-03T17:26:55;4.28;;;3.42;;
12780;SDS011;6454;43.304;24.344;2023-04-03T17:29:22;4.88;;;3.60;;
12780;SDS011;6454;43.304;24.344;2023-04-03T17:31:49;4.15;;;3.40;;
12780;SDS011;6454;43.304;24.344;2023-04-03T17:34:16;4.22;;;3.88;;
12780;SDS011;6454;43.304;24.344;2023-04-03T17:36:43;4.53;;;3.95;;
12780;SDS011;6454;43.304;24.344;2023-04-03T17:39:09;4.05;;;3.75;;
12780;SDS011;6454;43.304;24.344;2023-04-03T17:41:37;4.00;;;3.60;;
12780;SDS011;6454;43.304;24.344;2023-04-03T17:44:05;4.50;;;3.83;;
12780;SDS011;6454;43.304;24.344;2023-04-03T17:46:32;4.22;;;3.83;;
12780;SDS011;6454;43.304;24.344;2023-04-03T17:48:59;5.50;;;4.22;;
12780;SDS011;6454;43.304;24.344;2023-04-03T17:51:26;5.35;;;4.30;;
12780;SDS011;6454;43.304;24.344;2023-04-03T17:53:53;5.10;;;4.60;;
12780;SDS011;6454;43.304;24.344;2023-04-03T17:56:21;4.32;;;3.92;;
12780;SDS011;6454;43.304;24.344;2023-04-03T17:58:51;4.82;;;4.25;;
12780;SDS011;6454;43.304;24.344;2023-04-03T18:01:21;4.10;;;3.58;;
12780;SDS011;6454;43.304;24.344;2023-04-03T18:03:50;5.38;;;4.47;;
12780;SDS011;6454;43.304;24.344;2023-04-03T18:06:19;6.63;;;5.03;;
12780;SDS011;6454;43.304;24.344;2023-04-03T18:08:47;5.10;;;4.60;;
12780;SDS011;6454;43.304;24.344;2023-04-03T18:11:15;4.90;;;4.38;;
12780;SDS011;6454;43.304;24.344;2023-04-03T18:13:43;4.53;;;3.72;;
12780;SDS011;6454;43.304;24.344;2023-04-03T18:16:11;4.30;;;3.90;;
12780;SDS011;6454;43.304;24.344;2023-04-03T18:18:40;3.60;;;3.30;;
12780;SDS011;6454;43.304;24.344;2023-04-03T18:21:07;3.83;;;3.33;;
12780;SDS011;6454;43.304;24.344;2023-04-03T18:23:36;4.18;;;3.38;;
12780;SDS011;6454;43.304;24.344;2023-04-03T18:26:06;3.97;;;3.33;;
12780;SDS011;6454;43.304;24.344;2023-04-03T18:28:35;4.03;;;3.50;;
12780;SDS011;6454;43.304;24.344;2023-04-03T18:31:03;5.15;;;3.40;;
12780;SDS011;6454;43.304;24.344;2023-04-03T18:33:32;3.72;;;3.40;;
12780;SDS011;6454;43.304;24.344;2023-04-03T18:36:01;3.85;;;3.38;;
12780;SDS011;6454;43.304;24.344;2023-04-03T18:38:29;3.58;;;3.28;;
12780;SDS011;6454;43.304;24.344;2023-04-03T18:40:55;4.88;;;3.20;;
12780;SDS011;6454;43.304;24.344;2023-04-03T18:43:23;5.32;;;3.53;;
12780;SDS011;6454;43.304;24.344;2023-04-03T18:45:51;3.45;;;3.15;;
12780;SDS011;6454;43.304;24.344;2023-04-03T18:48:18;4.43;;;3.40;;
12780;SDS011;6454;43.304;24.344;2023-04-03T18:50:45;3.95;;;3.53;;
12780;SDS011;6454;43.304;24.344;2023-04-03T18:53:14;4.15;;;3.80;;
12780;SDS011;6454;43.304;24.344;2023-04-03T18:55:41;3.72;;;3.42;;
12780;SDS011;6454;43.304;24.344;2023-04-03T18:58:09;4.40;;;3.67;;
12780;SDS011;6454;43.304;24.344;2023-04-03T19:00:37;4.90;;;3.80;;
12780;SDS011;6454;43.304;24.344;2023-04-03T19:03:04;4.43;;;3.70;;
12780;SDS011;6454;43.304;24.344;2023-04-03T19:05:31;4.97;;;3.78;;
12780;SDS011;6454;43.304;24.344;2023-04-03T19:07:58;4.57;;;4.05;;
12780;SDS011;6454;43.304;24.344;2023-04-03T19:10:26;4.00;;;3.70;;
12780;SDS011;6454;43.304;24.344;2023-04-03T19:12:53;3.60;;;3.30;;
12780;SDS011;6454;43.304;24.344;2023-04-03T19:15:20;5.53;;;4.30;;
12780;SDS011;6454;43.304;24.344;2023-04-03T19:17:48;8.35;;;4.35;;
12780;SDS011;6454;43.304;24.344;2023-04-03T19:20:15;5.35;;;3.75;;
12780;SDS011;6454;43.304;24.344;2023-04-03T19:22:42;3.97;;;3.67;;
12780;SDS011;6454;43.304;24.344;2023-04-03T19:25:09;6.18;;;4.22;;
12780;SDS011;6454;43.304;24.344;2023-04-03T19:27:38;4.03;;;3.70;;
12780;SDS011;6454;43.304;24.344;2023-04-03T19:30:07;7.57;;;4.32;;
12780;SDS011;6454;43.304;24.344;2023-04-03T19:32:35;4.68;;;3.80;;
12780;SDS011;6454;43.304;24.344;2023-04-03T19:35:02;4.70;;;4.20;;
12780;SDS011;6454;43.304;24.344;2023-04-03T19:37:29;4.32;;;3.92;;
12780;SDS011;6454;43.304;24.344;2023-04-03T19:39:56;4.47;;;4.07;;
12780;SDS011;6454;43.304;24.344;2023-04-03T19:42:23;5.05;;;3.92;;
12780;SDS011;6454;43.304;24.344;2023-04-03T19:44:53;5.30;;;4.57;;
12780;SDS011;6454;43.304;24.344;2023-04-03T19:47:21;4.22;;;3.80;;
12780;SDS011;6454;43.304;24.344;2023-04-03T19:49:48;4.60;;;4.20;;
12780;SDS011;6454;43.304;24.344;2023-04-03T19:52:15;4.93;;;4.43;;
12780;SDS011;6454;43.304;24.344;2023-04-03T19:54:42;4.47;;;4.07;;
12780;SDS011;6454;43.304;24.344;2023-04-03T19:57:09;4.93;;;4.50;;
12780;SDS011;6454;43.304;24.344;2023-04-03T19:59:36;5.65;;;4.57;;
12780;SDS011;6454;43.304;24.344;2023-04-03T20:02:04;5.07;;;4.30;;
12780;SDS011;6454;43.304;24.344;2023-04-03T20:04:31;5.18;;;4.68;;
12780;SDS011;6454;43.304;24.344;2023-04-03T20:06:58;5.38;;;4.35;;
12780;SDS011;6454;43.304;24.344;2023-04-03T20:09:25;8.70;;;4.38;;
12780;SDS011;6454;43.304;24.344;2023-04-03T20:11:52;5.07;;;4.57;;
12780;SDS011;6454;43.304;24.344;2023-04-03T20:14:19;5.32;;;4.70;;